1854 Hurricane NOT_NAMED (1854258N13329)


IBTrACS version v04r00. Visit IBTrACS website for data access.
Please direct all questions to the IBTrACS Q and A forum

Storm track - Intensity - Wind Radii - Intensity Data - Source Data - All data

Summary Information

Storm ID 1854258N13329
Start Sep 15 06Z
Max Intensity 70 kt (Sep 21 12Z), 994 mb (Sep 23 18Z)
End Sep 25 06Z
ATCF IDs
Track status Best track data.

Storm track plot

Map of storm track

Intensity plots

Map of storm track

Radial wind information

No radial wind information for this storm


Position and Intensity Table

BASIN ISO_TIME_________ NATURE LAT LON MLC WIND MLC PRES
degrees north degrees east kts mb
NA 1854-09-15 06:00:00 TS 12.70 -31.00 30
NA 09:00:00 TS 12.90 -31.66 30
NA 12:00:00 TS 13.10 -32.30 30
NA 15:00:00 TS 13.30 -32.90 30
NA 18:00:00 TS 13.50 -33.50 30
NA 21:00:00 TS 13.70 -34.15 30
NA 1854-09-16 00:00:00 TS 13.90 -34.80 30
NA 03:00:00 TS 14.10 -35.40 32
NA 06:00:00 TS 14.30 -36.00 35
NA 09:00:00 TS 14.50 -36.65 35
NA 12:00:00 TS 14.70 -37.30 35
NA 15:00:00 TS 14.90 -37.90 35
NA 18:00:00 TS 15.10 -38.50 35
NA 21:00:00 TS 15.29 -39.15 35
NA 1854-09-17 00:00:00 TS 15.50 -39.80 35
NA 03:00:00 TS 15.74 -40.40 37
NA 06:00:00 TS 16.00 -41.00 40
NA 09:00:00 TS 16.25 -41.65 40
NA 12:00:00 TS 16.50 -42.30 40
NA 15:00:00 TS 16.72 -42.90 40
NA 18:00:00 TS 17.00 -43.50 40
NA 21:00:00 TS 17.43 -44.14 40
NA 1854-09-18 00:00:00 TS 17.90 -44.80 40
NA 03:00:00 TS 18.28 -45.45 42
NA 06:00:00 TS 18.70 -46.10 45
NA 09:00:00 TS 19.27 -46.81 45
NA 12:00:00 TS 19.80 -47.40 45
NA 15:00:00 TS 20.14 -47.71 45
NA 18:00:00 TS 20.40 -47.90 45
NA 21:00:00 TS 20.65 -48.14 45
NA 1854-09-19 00:00:00 TS 20.90 -48.40 45
NA 03:00:00 TS 21.20 -48.70 47
NA 06:00:00 TS 21.50 -49.00 50
NA 09:00:00 TS 21.73 -49.27 50
NA 12:00:00 TS 22.00 -49.50 50
NA 15:00:00 TS 22.38 -49.66 50
NA 18:00:00 TS 22.80 -49.80 50
NA 21:00:00 TS 23.16 -50.00 50
NA 1854-09-20 00:00:00 TS 23.50 -50.20 50
NA 03:00:00 TS 23.85 -50.36 52
NA 06:00:00 TS 24.20 -50.50 55
NA 09:00:00 TS 24.54 -50.66 55
NA 12:00:00 TS 24.90 -50.80 55
NA 15:00:00 TS 25.29 -50.86 57
NA 18:00:00 TS 25.70 -50.90 60
NA 21:00:00 TS 26.10 -50.99 60
NA 1854-09-21 00:00:00 TS 26.50 -51.10 60
NA 03:00:00 TS 26.91 -51.20 62
NA 06:00:00 TS 27.30 -51.30 65
NA 09:00:00 TS 27.64 -51.41 67
NA 12:00:00 TS 28.00 -51.50 70
NA 15:00:00 TS 28.48 -51.52 70
NA 18:00:00 TS 29.00 -51.50 70
NA 21:00:00 TS 29.46 -51.51 70
NA 1854-09-22 00:00:00 TS 29.90 -51.50 70
NA 03:00:00 TS 30.34 -51.45 70
NA 06:00:00 TS 30.80 -51.40 70
NA 09:00:00 TS 31.31 -51.40 70
NA 12:00:00 TS 31.80 -51.40 70
NA 15:00:00 TS 32.22 -51.35 70
NA 18:00:00 TS 32.60 -51.30 70
NA 21:00:00 TS 33.00 -51.30 70
NA 1854-09-23 00:00:00 TS 33.40 -51.30 70
NA 03:00:00 TS 33.80 -51.25 70
NA 06:00:00 TS 34.20 -51.20 70
NA 09:00:00 TS 34.51 -51.25 70
NA 12:00:00 TS 35.00 -51.20 70
NA 15:00:00 TS 35.91 -50.87 67
NA 18:00:00 TS 37.00 -50.40 65 994
NA 21:00:00 TS 38.00 -50.00 65
NA 1854-09-24 00:00:00 TS 39.00 -49.50 65
NA 03:00:00 TS 40.00 -48.79 65
NA 06:00:00 TS 41.00 -48.00 65
NA 09:00:00 TS 42.00 -47.25 60
NA 12:00:00 TS 43.00 -46.50 55
NA 15:00:00 TS 44.00 -45.75 50
NA 18:00:00 ET 45.00 -45.00 45
NA 21:00:00 ET 46.00 -44.25 42
NA 1854-09-25 00:00:00 ET 47.00 -43.50 40
NA 03:00:00 ET 48.00 -42.76 37
NA 06:00:00 ET 49.00 -42.00 35

Source Information

Agency Information
USA
TOKYO
CMA
HKO
NEWDELHI
REUNION
BOM
NADI
WELLINGTON
DS824
TD9636
TD9635
NEUMANN
MLC

All available IBTrACS Data

SEASON BASIN SUBBASIN ISO_TIME_________ NATURE LAT LON DIST2LAND LANDFALL IFLAG USA SSHS MLC LAT MLC LON MLC CLASS MLC WIND MLC PRES STORM SPEED STORM DIR
Year degrees north degrees east km km 1 degrees north degrees east kts mb kts degrees
1854 NA NA 1854-09-15 06:00:00 TS 12.70 -31.00 1476 1476 _____________O -1 12.70 -31.00 TD 30 14 287
1854 NA NA 09:00:00 TS 12.90 -31.66 1547 1547 _____________P -1 12.90 -31.66 TD 30 13 288
1854 NA NA 12:00:00 TS 13.10 -32.30 1608 1608 _____________O -1 13.10 -32.30 TD 30 13 288
1854 NA NA 15:00:00 TS 13.30 -32.90 1669 1669 _____________P -1 13.30 -32.90 TD 30 12 289
1854 NA NA 18:00:00 TS 13.50 -33.50 1731 1731 _____________O -1 13.50 -33.50 TD 30 13 288
1854 NA NA 21:00:00 TS 13.70 -34.15 1804 1804 _____________P -1 13.70 -34.15 TD 30 13 288
1854 NA NA 1854-09-16 00:00:00 TS 13.90 -34.80 1866 1866 _____________O -1 13.90 -34.80 TD 30 13 288
1854 NA NA 03:00:00 TS 14.10 -35.40 1929 1929 _____________P -1 14.10 -35.40 TD 32 12 289
1854 NA NA 06:00:00 TS 14.30 -36.00 1972 1969 _____________O -1 14.30 -36.00 TS 35 13 288
1854 NA NA 09:00:00 TS 14.50 -36.65 1966 1926 _____________P -1 14.50 -36.65 TS 35 13 288
1854 NA NA 12:00:00 TS 14.70 -37.30 1926 1888 _____________O -1 14.70 -37.30 TS 35 13 288
1854 NA NA 15:00:00 TS 14.90 -37.90 1888 1851 _____________P -1 14.90 -37.90 TS 35 12 289
1854 NA NA 18:00:00 TS 15.10 -38.50 1851 1817 _____________O -1 15.10 -38.50 TS 35 13 288
1854 NA NA 21:00:00 TS 15.29 -39.15 1809 1776 _____________P -1 15.29 -39.15 TS 35 13 288
1854 NA NA 1854-09-17 00:00:00 TS 15.50 -39.80 1776 1746 _____________O -1 15.50 -39.80 TS 35 13 290
1854 NA NA 03:00:00 TS 15.74 -40.40 1746 1726 _____________P -1 15.74 -40.40 TS 37 13 293
1854 NA NA 06:00:00 TS 16.00 -41.00 1727 1702 _____________O -1 16.00 -41.00 TS 40 13 293
1854 NA NA 09:00:00 TS 16.25 -41.65 1696 1680 _____________P -1 16.25 -41.65 TS 40 13 292
1854 NA NA 12:00:00 TS 16.50 -42.30 1683 1664 _____________O -1 16.50 -42.30 TS 40 13 291
1854 NA NA 15:00:00 TS 16.72 -42.90 1664 1649 _____________P -1 16.72 -42.90 TS 40 13 294
1854 NA NA 18:00:00 TS 17.00 -43.50 1652 1644 _____________O -1 17.00 -43.50 TS 40 14 301
1854 NA NA 21:00:00 TS 17.43 -44.14 1650 1647 _____________P -1 17.43 -44.14 TS 40 15 306
1854 NA NA 1854-09-18 00:00:00 TS 17.90 -44.80 1655 1650 _____________O -1 17.90 -44.80 TS 40 15 305
1854 NA NA 03:00:00 TS 18.28 -45.45 1657 1652 _____________P -1 18.28 -45.45 TS 42 15 303
1854 NA NA 06:00:00 TS 18.70 -46.10 1667 1667 _____________O -1 18.70 -46.10 TS 45 16 307
1854 NA NA 09:00:00 TS 19.27 -46.81 1697 1693 _____________P -1 19.27 -46.81 TS 45 17 312
1854 NA NA 12:00:00 TS 19.80 -47.40 1721 1721 _____________O -1 19.80 -47.40 TS 45 12 316
1854 NA NA 15:00:00 TS 20.14 -47.71 1738 1738 _____________P -1 20.14 -47.71 TS 45 8 322
1854 NA NA 18:00:00 TS 20.40 -47.90 1760 1760 _____________O -1 20.40 -47.90 TS 45 7 321
1854 NA NA 21:00:00 TS 20.65 -48.14 1769 1765 _____________P -1 20.65 -48.14 TS 45 7 317
1854 NA NA 1854-09-19 00:00:00 TS 20.90 -48.40 1765 1762 _____________O -1 20.90 -48.40 TS 45 8 317
1854 NA NA 03:00:00 TS 21.20 -48.70 1762 1760 _____________P -1 21.20 -48.70 TS 47 8 317
1854 NA NA 06:00:00 TS 21.50 -49.00 1760 1741 _____________O -1 21.50 -49.00 TS 50 8 315
1854 NA NA 09:00:00 TS 21.73 -49.27 1741 1724 _____________P -1 21.73 -49.27 TS 50 7 317
1854 NA NA 12:00:00 TS 22.00 -49.50 1726 1718 _____________O -1 22.00 -49.50 TS 50 7 331
1854 NA NA 15:00:00 TS 22.38 -49.66 1715 1712 _____________P -1 22.38 -49.66 TS 50 9 341
1854 NA NA 18:00:00 TS 22.80 -49.80 1715 1703 _____________O -1 22.80 -49.80 TS 50 8 338
1854 NA NA 21:00:00 TS 23.16 -50.00 1706 1693 _____________P -1 23.16 -50.00 TS 50 8 332
1854 NA NA 1854-09-20 00:00:00 TS 23.50 -50.20 1696 1689 _____________O -1 23.50 -50.20 TS 50 8 335
1854 NA NA 03:00:00 TS 23.85 -50.36 1686 1686 _____________P -1 23.85 -50.36 TS 52 8 339
1854 NA NA 06:00:00 TS 24.20 -50.50 1691 1684 _____________O -1 24.20 -50.50 TS 55 8 338
1854 NA NA 09:00:00 TS 24.54 -50.66 1684 1684 _____________P -1 24.54 -50.66 TS 55 8 339
1854 NA NA 12:00:00 TS 24.90 -50.80 1691 1691 _____________O -1 24.90 -50.80 TS 55 8 347
1854 NA NA 15:00:00 TS 25.29 -50.86 1699 1699 _____________P -1 25.29 -50.86 TS 57 8 354
1854 NA NA 18:00:00 TS 25.70 -50.90 1718 1718 _____________O -1 25.70 -50.90 TS 60 8 351
1854 NA NA 21:00:00 TS 26.10 -50.99 1729 1729 _____________P -1 26.10 -50.99 TS 60 8 347
1854 NA NA 1854-09-21 00:00:00 TS 26.50 -51.10 1741 1741 _____________O -1 26.50 -51.10 TS 60 8 347
1854 NA NA 03:00:00 TS 26.91 -51.20 1754 1754 _____________P -1 26.91 -51.20 TS 62 8 347
1854 NA NA 06:00:00 TS 27.30 -51.30 1768 1768 _____________O -1 27.30 -51.30 HU 65 8 345
1854 NA NA 09:00:00 TS 27.64 -51.41 1777 1777 _____________P -1 27.64 -51.41 HU 67 7 346
1854 NA NA 12:00:00 TS 28.00 -51.50 1793 1793 _____________O -1 28.00 -51.50 HU 70 9 354
1854 NA NA 15:00:00 TS 28.48 -51.52 1825 1825 _____________P -1 28.48 -51.52 HU 70 10 1
1854 NA NA 18:00:00 TS 29.00 -51.50 1857 1857 _____________O -1 29.00 -51.50 HU 70 10 0
1854 NA NA 21:00:00 TS 29.46 -51.51 1891 1865 _____________P -1 29.46 -51.51 HU 70 9 0
1854 NA NA 1854-09-22 00:00:00 TS 29.90 -51.50 1865 1820 _____________O -1 29.90 -51.50 HU 70 9 3
1854 NA NA 03:00:00 TS 30.34 -51.45 1820 1765 _____________P -1 30.34 -51.45 HU 70 9 5
1854 NA NA 06:00:00 TS 30.80 -51.40 1765 1710 _____________O -1 30.80 -51.40 HU 70 10 2
1854 NA NA 09:00:00 TS 31.31 -51.40 1710 1654 _____________P -1 31.31 -51.40 HU 70 10 1
1854 NA NA 12:00:00 TS 31.80 -51.40 1654 1610 _____________O -1 31.80 -51.40 HU 70 9 2
1854 NA NA 15:00:00 TS 32.22 -51.35 1610 1566 _____________P -1 32.22 -51.35 HU 70 8 6
1854 NA NA 18:00:00 TS 32.60 -51.30 1566 1522 _____________O -1 32.60 -51.30 HU 70 8 3
1854 NA NA 21:00:00 TS 33.00 -51.30 1522 1477 _____________P -1 33.00 -51.30 HU 70 8 1
1854 NA NA 1854-09-23 00:00:00 TS 33.40 -51.30 1477 1433 _____________O -1 33.40 -51.30 HU 70 8 3
1854 NA NA 03:00:00 TS 33.80 -51.25 1433 1390 _____________P -1 33.80 -51.25 HU 70 8 6
1854 NA NA 06:00:00 TS 34.20 -51.20 1390 1356 _____________O -1 34.20 -51.20 HU 70 7 359
1854 NA NA 09:00:00 TS 34.51 -51.25 1355 1301 _____________P -1 34.51 -51.25 HU 70 8 1
1854 NA NA 12:00:00 TS 35.00 -51.20 1301 1205 _____________O -1 35.00 -51.20 HU 70 14 13
1854 NA NA 15:00:00 TS 35.91 -50.87 1205 1101 _____________P -1 35.91 -50.87 HU 67 21 18
1854 NA NA 18:00:00 TS 37.00 -50.40 1092 1002 _____________O -1 37.00 -50.40 HU 65 994 22 18
1854 NA NA 21:00:00 TS 38.00 -50.00 991 904 _____________P -1 38.00 -50.00 HU 65 21 20
1854 NA NA 1854-09-24 00:00:00 TS 39.00 -49.50 896 821 _____________O -1 39.00 -49.50 HU 65 22 25
1854 NA NA 03:00:00 TS 40.00 -48.79 814 753 _____________P -1 40.00 -48.79 HU 65 23 30
1854 NA NA 06:00:00 TS 41.00 -48.00 748 701 _____________O -1 41.00 -48.00 HU 65 23 30
1854 NA NA 09:00:00 TS 42.00 -47.25 697 661 _____________P -1 42.00 -47.25 HU 60 23 29
1854 NA NA 12:00:00 TS 43.00 -46.50 660 644 _____________O -1 43.00 -46.50 TS 55 23 29
1854 NA NA 15:00:00 TS 44.00 -45.75 646 639 _____________P -1 44.00 -45.75 TS 50 23 28
1854 NA NA 18:00:00 ET 45.00 -45.00 644 639 _____________O -1 45.00 -45.00 EX 45 23 28
1854 NA NA 21:00:00 ET 46.00 -44.25 658 655 _____________P -1 46.00 -44.25 EX 42 23 28
1854 NA NA 1854-09-25 00:00:00 ET 47.00 -43.50 685 684 _____________O -1 47.00 -43.50 EX 40 22 27
1854 NA NA 03:00:00 ET 48.00 -42.76 731 731 _____________P -1 48.00 -42.76 EX 37 22 27
1854 NA NA 06:00:00 ET 49.00 -42.00 796 _____________O -1 49.00 -42.00 EX 35 22 26